sensor_id;sensor_type;location;lat;lon;timestamp;P1;durP1;ratioP1;P2;durP2;ratioP2
32228;SDS011;18717;48.034;11.186;2022-09-17T00:01:37;12.70;;;11.50;;
32228;SDS011;18717;48.034;11.186;2022-09-17T00:04:05;12.23;;;11.13;;
32228;SDS011;18717;48.034;11.186;2022-09-17T00:06:34;12.48;;;11.38;;
32228;SDS011;18717;48.034;11.186;2022-09-17T00:09:04;12.93;;;12.02;;
32228;SDS011;18717;48.034;11.186;2022-09-17T00:11:33;13.32;;;12.23;;
32228;SDS011;18717;48.034;11.186;2022-09-17T00:14:03;11.68;;;10.77;;
32228;SDS011;18717;48.034;11.186;2022-09-17T00:16:33;11.52;;;10.57;;
32228;SDS011;18717;48.034;11.186;2022-09-17T00:19:02;12.07;;;10.98;;
32228;SDS011;18717;48.034;11.186;2022-09-17T00:21:31;24.55;;;13.60;;
32228;SDS011;18717;48.034;11.186;2022-09-17T00:24:00;11.35;;;10.32;;
32228;SDS011;18717;48.034;11.186;2022-09-17T00:26:31;10.95;;;9.85;;
32228;SDS011;18717;48.034;11.186;2022-09-17T00:28:59;11.50;;;10.60;;
32228;SDS011;18717;48.034;11.186;2022-09-17T00:31:28;11.32;;;10.32;;
32228;SDS011;18717;48.034;11.186;2022-09-17T00:33:57;11.32;;;10.52;;
32228;SDS011;18717;48.034;11.186;2022-09-17T00:36:25;11.73;;;10.70;;
32228;SDS011;18717;48.034;11.186;2022-09-17T00:38:53;11.65;;;10.55;;
32228;SDS011;18717;48.034;11.186;2022-09-17T00:41:23;12.18;;;11.27;;
32228;SDS011;18717;48.034;11.186;2022-09-17T00:43:54;11.85;;;10.80;;
32228;SDS011;18717;48.034;11.186;2022-09-17T00:46:25;11.35;;;10.27;;
32228;SDS011;18717;48.034;11.186;2022-09-17T00:48:58;11.18;;;10.38;;
32228;SDS011;18717;48.034;11.186;2022-09-17T00:51:28;11.40;;;9.55;;
32228;SDS011;18717;48.034;11.186;2022-09-17T00:53:59;10.60;;;9.70;;
32228;SDS011;18717;48.034;11.186;2022-09-17T00:56:28;10.57;;;9.82;;
32228;SDS011;18717;48.034;11.186;2022-09-17T00:59:00;11.43;;;10.18;;
32228;SDS011;18717;48.034;11.186;2022-09-17T01:01:28;11.13;;;10.32;;
32228;SDS011;18717;48.034;11.186;2022-09-17T01:03:56;10.65;;;9.85;;
32228;SDS011;18717;48.034;11.186;2022-09-17T01:06:26;11.27;;;10.40;;
32228;SDS011;18717;48.034;11.186;2022-09-17T01:09:05;10.82;;;9.98;;
32228;SDS011;18717;48.034;11.186;2022-09-17T01:11:57;10.45;;;9.68;;
32228;SDS011;18717;48.034;11.186;2022-09-17T01:14:41;10.52;;;9.52;;
32228;SDS011;18717;48.034;11.186;2022-09-17T01:17:14;13.20;;;10.95;;
32228;SDS011;18717;48.034;11.186;2022-09-17T01:19:59;11.97;;;10.23;;
32228;SDS011;18717;48.034;11.186;2022-09-17T01:22:37;12.10;;;11.00;;
32228;SDS011;18717;48.034;11.186;2022-09-17T01:25:18;17.67;;;11.93;;
32228;SDS011;18717;48.034;11.186;2022-09-17T01:28:00;15.48;;;12.40;;
32228;SDS011;18717;48.034;11.186;2022-09-17T01:31:01;10.80;;;10.10;;
32228;SDS011;18717;48.034;11.186;2022-09-17T01:33:33;11.43;;;10.63;;
32228;SDS011;18717;48.034;11.186;2022-09-17T01:36:09;10.20;;;9.40;;
32228;SDS011;18717;48.034;11.186;2022-09-17T01:38:43;10.68;;;9.80;;
32228;SDS011;18717;48.034;11.186;2022-09-17T01:41:17;11.45;;;10.40;;
32228;SDS011;18717;48.034;11.186;2022-09-17T01:43:50;10.68;;;9.98;;
32228;SDS011;18717;48.034;11.186;2022-09-17T01:46:23;11.70;;;10.35;;
32228;SDS011;18717;48.034;11.186;2022-09-17T01:48:55;11.38;;;10.55;;
32228;SDS011;18717;48.034;11.186;2022-09-17T01:51:25;10.73;;;9.93;;
32228;SDS011;18717;48.034;11.186;2022-09-17T01:53:56;10.15;;;9.57;;
32228;SDS011;18717;48.034;11.186;2022-09-17T01:56:27;9.82;;;9.23;;
32228;SDS011;18717;48.034;11.186;2022-09-17T01:58:59;9.75;;;8.93;;
32228;SDS011;18717;48.034;11.186;2022-09-17T02:01:30;9.68;;;9.07;;
32228;SDS011;18717;48.034;11.186;2022-09-17T02:04:00;9.88;;;9.27;;
32228;SDS011;18717;48.034;11.186;2022-09-17T02:06:32;9.75;;;9.05;;
32228;SDS011;18717;48.034;11.186;2022-09-17T02:09:04;9.70;;;9.07;;
32228;SDS011;18717;48.034;11.186;2022-09-17T02:11:40;10.38;;;9.73;;
32228;SDS011;18717;48.034;11.186;2022-09-17T02:14:10;9.88;;;9.13;;
32228;SDS011;18717;48.034;11.186;2022-09-17T02:16:42;10.25;;;9.57;;
32228;SDS011;18717;48.034;11.186;2022-09-17T02:19:14;11.40;;;10.55;;
32228;SDS011;18717;48.034;11.186;2022-09-17T02:21:46;10.83;;;10.03;;
32228;SDS011;18717;48.034;11.186;2022-09-17T02:24:17;10.63;;;10.00;;
32228;SDS011;18717;48.034;11.186;2022-09-17T02:26:48;11.35;;;10.57;;
32228;SDS011;18717;48.034;11.186;2022-09-17T02:29:21;11.23;;;10.10;;
32228;SDS011;18717;48.034;11.186;2022-09-17T02:31:52;12.52;;;11.57;;
32228;SDS011;18717;48.034;11.186;2022-09-17T02:34:20;11.65;;;10.77;;
32228;SDS011;18717;48.034;11.186;2022-09-17T02:36:50;11.90;;;10.88;;
32228;SDS011;18717;48.034;11.186;2022-09-17T02:39:18;12.27;;;11.27;;
32228;SDS011;18717;48.034;11.186;2022-09-17T02:41:48;12.00;;;11.00;;
32228;SDS011;18717;48.034;11.186;2022-09-17T02:44:21;12.32;;;11.20;;
32228;SDS011;18717;48.034;11.186;2022-09-17T02:47:03;13.00;;;11.00;;
32228;SDS011;18717;48.034;11.186;2022-09-17T02:49:41;12.50;;;10.73;;
32228;SDS011;18717;48.034;11.186;2022-09-17T02:52:16;12.18;;;10.43;;
32228;SDS011;18717;48.034;11.186;2022-09-17T02:54:50;10.88;;;10.07;;
32228;SDS011;18717;48.034;11.186;2022-09-17T02:57:24;11.23;;;10.18;;
32228;SDS011;18717;48.034;11.186;2022-09-17T02:59:57;10.65;;;9.75;;
32228;SDS011;18717;48.034;11.186;2022-09-17T03:02:32;11.65;;;10.50;;
32228;SDS011;18717;48.034;11.186;2022-09-17T03:05:02;10.73;;;9.80;;
32228;SDS011;18717;48.034;11.186;2022-09-17T03:07:32;11.20;;;10.20;;
32228;SDS011;18717;48.034;11.186;2022-09-17T03:09:59;11.38;;;10.27;;
32228;SDS011;18717;48.034;11.186;2022-09-17T03:12:27;11.38;;;9.93;;
32228;SDS011;18717;48.034;11.186;2022-09-17T03:14:54;9.52;;;8.95;;
32228;SDS011;18717;48.034;11.186;2022-09-17T03:17:23;9.63;;;9.13;;
32228;SDS011;18717;48.034;11.186;2022-09-17T03:19:52;9.27;;;8.68;;
32228;SDS011;18717;48.034;11.186;2022-09-17T03:22:20;9.80;;;9.00;;
32228;SDS011;18717;48.034;11.186;2022-09-17T03:24:47;10.73;;;9.85;;
32228;SDS011;18717;48.034;11.186;2022-09-17T03:27:15;10.32;;;9.57;;
32228;SDS011;18717;48.034;11.186;2022-09-17T03:29:43;11.60;;;10.90;;
32228;SDS011;18717;48.034;11.186;2022-09-17T03:32:10;9.82;;;9.20;;
32228;SDS011;18717;48.034;11.186;2022-09-17T03:34:38;9.77;;;8.88;;
32228;SDS011;18717;48.034;11.186;2022-09-17T03:37:07;9.70;;;9.10;;
32228;SDS011;18717;48.034;11.186;2022-09-17T03:39:34;9.63;;;8.90;;
32228;SDS011;18717;48.034;11.186;2022-09-17T03:42:02;10.15;;;9.27;;
32228;SDS011;18717;48.034;11.186;2022-09-17T03:44:30;9.30;;;8.63;;
32228;SDS011;18717;48.034;11.186;2022-09-17T03:46:57;10.77;;;10.07;;
32228;SDS011;18717;48.034;11.186;2022-09-17T03:49:25;10.45;;;9.73;;
32228;SDS011;18717;48.034;11.186;2022-09-17T03:51:53;9.90;;;9.20;;
32228;SDS011;18717;48.034;11.186;2022-09-17T03:54:22;10.38;;;9.55;;
32228;SDS011;18717;48.034;11.186;2022-09-17T03:56:50;9.60;;;8.90;;
32228;SDS011;18717;48.034;11.186;2022-09-17T03:59:18;10.02;;;9.20;;
32228;SDS011;18717;48.034;11.186;2022-09-17T04:01:46;9.70;;;9.00;;
32228;SDS011;18717;48.034;11.186;2022-09-17T04:04:14;10.55;;;9.57;;
32228;SDS011;18717;48.034;11.186;2022-09-17T04:06:41;9.40;;;8.77;;
32228;SDS011;18717;48.034;11.186;2022-09-17T04:09:09;9.80;;;9.20;;
32228;SDS011;18717;48.034;11.186;2022-09-17T04:11:38;9.70;;;9.00;;
32228;SDS011;18717;48.034;11.186;2022-09-17T04:14:06;10.18;;;9.52;;
32228;SDS011;18717;48.034;11.186;2022-09-17T04:16:33;9.40;;;8.73;;
32228;SDS011;18717;48.034;11.186;2022-09-17T04:19:01;11.05;;;10.20;;
32228;SDS011;18717;48.034;11.186;2022-09-17T04:21:29;10.55;;;9.82;;
32228;SDS011;18717;48.034;11.186;2022-09-17T04:23:57;10.13;;;9.50;;
32228;SDS011;18717;48.034;11.186;2022-09-17T04:26:25;9.95;;;9.18;;
32228;SDS011;18717;48.034;11.186;2022-09-17T04:28:54;10.60;;;9.68;;
32228;SDS011;18717;48.034;11.186;2022-09-17T04:31:22;10.15;;;9.38;;
32228;SDS011;18717;48.034;11.186;2022-09-17T04:33:50;10.82;;;10.13;;
32228;SDS011;18717;48.034;11.186;2022-09-17T04:36:17;9.88;;;9.27;;
32228;SDS011;18717;48.034;11.186;2022-09-17T04:38:46;10.50;;;9.80;;
32228;SDS011;18717;48.034;11.186;2022-09-17T04:41:14;11.25;;;10.48;;
32228;SDS011;18717;48.034;11.186;2022-09-17T04:43:42;11.32;;;10.32;;
32228;SDS011;18717;48.034;11.186;2022-09-17T04:46:11;15.52;;;10.43;;
32228;SDS011;18717;48.034;11.186;2022-09-17T04:48:39;11.75;;;10.70;;
32228;SDS011;18717;48.034;11.186;2022-09-17T04:51:07;10.43;;;9.48;;
32228;SDS011;18717;48.034;11.186;2022-09-17T04:53:35;11.13;;;9.90;;
32228;SDS011;18717;48.034;11.186;2022-09-17T04:56:03;10.80;;;9.68;;
32228;SDS011;18717;48.034;11.186;2022-09-17T04:58:31;10.07;;;9.18;;
32228;SDS011;18717;48.034;11.186;2022-09-17T05:00:59;10.30;;;9.55;;
32228;SDS011;18717;48.034;11.186;2022-09-17T05:03:28;10.30;;;9.25;;
32228;SDS011;18717;48.034;11.186;2022-09-17T05:05:56;8.98;;;8.48;;
32228;SDS011;18717;48.034;11.186;2022-09-17T05:08:24;9.77;;;8.90;;
32228;SDS011;18717;48.034;11.186;2022-09-17T05:13:49;9.95;;;9.13;;
32228;SDS011;18717;48.034;11.186;2022-09-17T05:16:16;9.85;;;9.25;;
32228;SDS011;18717;48.034;11.186;2022-09-17T05:18:45;9.25;;;8.70;;
32228;SDS011;18717;48.034;11.186;2022-09-17T05:21:14;11.82;;;9.35;;
32228;SDS011;18717;48.034;11.186;2022-09-17T05:23:42;9.75;;;9.15;;
32228;SDS011;18717;48.034;11.186;2022-09-17T05:26:09;9.20;;;8.60;;
32228;SDS011;18717;48.034;11.186;2022-09-17T05:28:37;11.80;;;9.23;;
32228;SDS011;18717;48.034;11.186;2022-09-17T05:31:05;10.27;;;9.13;;
32228;SDS011;18717;48.034;11.186;2022-09-17T05:33:32;9.73;;;8.63;;
32228;SDS011;18717;48.034;11.186;2022-09-17T05:36:01;9.32;;;8.60;;
32228;SDS011;18717;48.034;11.186;2022-09-17T05:38:29;9.18;;;8.60;;
32228;SDS011;18717;48.034;11.186;2022-09-17T05:40:57;9.35;;;8.57;;
32228;SDS011;18717;48.034;11.186;2022-09-17T05:43:25;10.63;;;9.73;;
32228;SDS011;18717;48.034;11.186;2022-09-17T05:45:52;12.10;;;9.27;;
32228;SDS011;18717;48.034;11.186;2022-09-17T05:48:20;9.35;;;8.73;;
32228;SDS011;18717;48.034;11.186;2022-09-17T05:50:48;10.00;;;9.02;;
32228;SDS011;18717;48.034;11.186;2022-09-17T05:53:17;10.15;;;9.35;;
32228;SDS011;18717;48.034;11.186;2022-09-17T05:55:44;9.15;;;8.65;;
32228;SDS011;18717;48.034;11.186;2022-09-17T05:58:13;8.73;;;8.07;;
32228;SDS011;18717;48.034;11.186;2022-09-17T06:00:42;9.80;;;9.00;;
32228;SDS011;18717;48.034;11.186;2022-09-17T06:03:14;9.43;;;8.93;;
32228;SDS011;18717;48.034;11.186;2022-09-17T06:05:42;8.90;;;8.27;;
32228;SDS011;18717;48.034;11.186;2022-09-17T06:08:10;10.93;;;9.93;;
32228;SDS011;18717;48.034;11.186;2022-09-17T06:10:39;10.32;;;9.63;;
32228;SDS011;18717;48.034;11.186;2022-09-17T06:13:07;9.85;;;9.23;;
32228;SDS011;18717;48.034;11.186;2022-09-17T06:15:35;9.25;;;8.50;;
32228;SDS011;18717;48.034;11.186;2022-09-17T06:18:02;8.80;;;8.30;;
32228;SDS011;18717;48.034;11.186;2022-09-17T06:20:30;9.18;;;8.68;;
32228;SDS011;18717;48.034;11.186;2022-09-17T06:22:59;9.23;;;8.63;;
32228;SDS011;18717;48.034;11.186;2022-09-17T06:25:26;10.25;;;9.55;;
32228;SDS011;18717;48.034;11.186;2022-09-17T06:27:56;9.70;;;8.88;;
32228;SDS011;18717;48.034;11.186;2022-09-17T06:30:23;9.80;;;9.10;;
32228;SDS011;18717;48.034;11.186;2022-09-17T06:32:51;9.85;;;8.95;;
32228;SDS011;18717;48.034;11.186;2022-09-17T06:38:28;9.00;;;8.40;;
32228;SDS011;18717;48.034;11.186;2022-09-17T06:40:56;9.10;;;8.60;;
32228;SDS011;18717;48.034;11.186;2022-09-17T06:43:25;9.13;;;8.57;;
32228;SDS011;18717;48.034;11.186;2022-09-17T06:45:53;8.75;;;8.15;;
32228;SDS011;18717;48.034;11.186;2022-09-17T06:48:22;9.25;;;8.55;;
32228;SDS011;18717;48.034;11.186;2022-09-17T06:50:50;9.60;;;8.90;;
32228;SDS011;18717;48.034;11.186;2022-09-17T06:53:19;9.35;;;8.60;;
32228;SDS011;18717;48.034;11.186;2022-09-17T06:55:47;9.85;;;9.05;;
32228;SDS011;18717;48.034;11.186;2022-09-17T06:58:15;13.25;;;10.02;;
32228;SDS011;18717;48.034;11.186;2022-09-17T07:00:44;9.77;;;9.07;;
32228;SDS011;18717;48.034;11.186;2022-09-17T07:03:13;11.02;;;9.82;;
32228;SDS011;18717;48.034;11.186;2022-09-17T07:08:12;11.18;;;10.00;;
32228;SDS011;18717;48.034;11.186;2022-09-17T07:10:40;9.27;;;8.52;;
32228;SDS011;18717;48.034;11.186;2022-09-17T07:13:08;9.70;;;8.70;;
32228;SDS011;18717;48.034;11.186;2022-09-17T07:15:35;10.40;;;9.30;;
32228;SDS011;18717;48.034;11.186;2022-09-17T07:18:07;9.60;;;8.80;;
32228;SDS011;18717;48.034;11.186;2022-09-17T07:20:36;9.20;;;8.70;;
32228;SDS011;18717;48.034;11.186;2022-09-17T07:23:04;11.05;;;10.02;;
32228;SDS011;18717;48.034;11.186;2022-09-17T07:25:34;9.30;;;8.60;;
32228;SDS011;18717;48.034;11.186;2022-09-17T07:28:02;9.38;;;8.55;;
32228;SDS011;18717;48.034;11.186;2022-09-17T07:30:30;10.10;;;9.30;;
32228;SDS011;18717;48.034;11.186;2022-09-17T07:32:59;9.65;;;9.05;;
32228;SDS011;18717;48.034;11.186;2022-09-17T07:35:28;12.23;;;8.80;;
32228;SDS011;18717;48.034;11.186;2022-09-17T07:37:56;11.80;;;9.05;;
32228;SDS011;18717;48.034;11.186;2022-09-17T07:40:23;10.05;;;9.45;;
32228;SDS011;18717;48.034;11.186;2022-09-17T07:42:51;11.73;;;9.10;;
32228;SDS011;18717;48.034;11.186;2022-09-17T07:45:19;12.55;;;9.35;;
32228;SDS011;18717;48.034;11.186;2022-09-17T07:47:47;11.18;;;9.60;;
32228;SDS011;18717;48.034;11.186;2022-09-17T07:50:14;10.23;;;9.43;;
32228;SDS011;18717;48.034;11.186;2022-09-17T07:52:45;11.07;;;9.15;;
32228;SDS011;18717;48.034;11.186;2022-09-17T07:55:14;9.02;;;8.43;;
32228;SDS011;18717;48.034;11.186;2022-09-17T07:57:42;9.57;;;8.70;;
32228;SDS011;18717;48.034;11.186;2022-09-17T08:00:10;8.65;;;8.23;;
32228;SDS011;18717;48.034;11.186;2022-09-17T08:02:39;12.25;;;9.02;;
32228;SDS011;18717;48.034;11.186;2022-09-17T08:05:07;9.45;;;8.75;;
32228;SDS011;18717;48.034;11.186;2022-09-17T08:07:35;10.45;;;9.43;;
32228;SDS011;18717;48.034;11.186;2022-09-17T08:10:04;9.50;;;8.65;;
32228;SDS011;18717;48.034;11.186;2022-09-17T08:12:33;9.27;;;8.57;;
32228;SDS011;18717;48.034;11.186;2022-09-17T08:15:00;10.52;;;9.00;;
32228;SDS011;18717;48.034;11.186;2022-09-17T08:17:28;9.15;;;8.65;;
32228;SDS011;18717;48.034;11.186;2022-09-17T08:19:56;9.50;;;8.25;;
32228;SDS011;18717;48.034;11.186;2022-09-17T08:22:24;8.80;;;8.10;;
32228;SDS011;18717;48.034;11.186;2022-09-17T08:24:51;10.93;;;8.70;;
32228;SDS011;18717;48.034;11.186;2022-09-17T08:27:20;11.25;;;10.25;;
32228;SDS011;18717;48.034;11.186;2022-09-17T08:29:48;9.55;;;8.65;;
32228;SDS011;18717;48.034;11.186;2022-09-17T08:32:16;12.00;;;9.02;;
32228;SDS011;18717;48.034;11.186;2022-09-17T08:34:44;9.02;;;8.35;;
32228;SDS011;18717;48.034;11.186;2022-09-17T08:37:16;8.80;;;8.25;;
32228;SDS011;18717;48.034;11.186;2022-09-17T08:39:45;8.73;;;7.95;;
32228;SDS011;18717;48.034;11.186;2022-09-17T08:42:15;12.10;;;8.85;;
32228;SDS011;18717;48.034;11.186;2022-09-17T08:44:46;9.17;;;8.30;;
32228;SDS011;18717;48.034;11.186;2022-09-17T08:47:19;10.18;;;9.10;;
32228;SDS011;18717;48.034;11.186;2022-09-17T08:49:52;9.50;;;8.88;;
32228;SDS011;18717;48.034;11.186;2022-09-17T08:55:38;9.43;;;8.80;;
32228;SDS011;18717;48.034;11.186;2022-09-17T08:58:17;11.23;;;8.48;;
32228;SDS011;18717;48.034;11.186;2022-09-17T09:00:56;9.93;;;8.88;;
32228;SDS011;18717;48.034;11.186;2022-09-17T09:03:31;9.15;;;8.38;;
32228;SDS011;18717;48.034;11.186;2022-09-17T09:06:06;10.60;;;9.07;;
32228;SDS011;18717;48.034;11.186;2022-09-17T09:08:36;9.63;;;8.82;;
32228;SDS011;18717;48.034;11.186;2022-09-17T09:11:10;10.07;;;8.77;;
32228;SDS011;18717;48.034;11.186;2022-09-17T09:13:42;10.65;;;9.70;;
32228;SDS011;18717;48.034;11.186;2022-09-17T09:16:13;9.73;;;8.88;;
32228;SDS011;18717;48.034;11.186;2022-09-17T09:18:42;8.93;;;8.25;;
32228;SDS011;18717;48.034;11.186;2022-09-17T09:21:15;9.32;;;8.80;;
32228;SDS011;18717;48.034;11.186;2022-09-17T09:23:51;9.82;;;8.93;;
32228;SDS011;18717;48.034;11.186;2022-09-17T09:26:22;13.68;;;11.00;;
32228;SDS011;18717;48.034;11.186;2022-09-17T09:28:54;10.25;;;9.30;;
32228;SDS011;18717;48.034;11.186;2022-09-17T09:31:40;14.32;;;8.52;;
32228;SDS011;18717;48.034;11.186;2022-09-17T09:34:14;16.33;;;14.50;;
32228;SDS011;18717;48.034;11.186;2022-09-17T09:36:42;10.20;;;9.35;;
32228;SDS011;18717;48.034;11.186;2022-09-17T09:39:12;9.80;;;9.00;;
32228;SDS011;18717;48.034;11.186;2022-09-17T09:41:42;10.25;;;8.80;;
32228;SDS011;18717;48.034;11.186;2022-09-17T09:44:12;9.45;;;8.75;;
32228;SDS011;18717;48.034;11.186;2022-09-17T09:46:52;13.18;;;9.02;;
32228;SDS011;18717;48.034;11.186;2022-09-17T09:49:30;8.75;;;8.15;;
32228;SDS011;18717;48.034;11.186;2022-09-17T09:52:06;9.45;;;8.52;;
32228;SDS011;18717;48.034;11.186;2022-09-17T09:54:42;12.88;;;8.95;;
32228;SDS011;18717;48.034;11.186;2022-09-17T09:57:15;12.55;;;8.30;;
32228;SDS011;18717;48.034;11.186;2022-09-17T09:59:45;11.00;;;9.05;;
32228;SDS011;18717;48.034;11.186;2022-09-17T10:02:19;9.55;;;8.60;;
32228;SDS011;18717;48.034;11.186;2022-09-17T10:07:18;9.10;;;7.72;;
32228;SDS011;18717;48.034;11.186;2022-09-17T10:09:46;9.70;;;8.65;;
32228;SDS011;18717;48.034;11.186;2022-09-17T10:12:15;11.30;;;8.90;;
32228;SDS011;18717;48.034;11.186;2022-09-17T10:14:44;9.55;;;8.65;;
32228;SDS011;18717;48.034;11.186;2022-09-17T10:17:17;9.10;;;8.35;;
32228;SDS011;18717;48.034;11.186;2022-09-17T10:22:48;8.85;;;8.15;;
32228;SDS011;18717;48.034;11.186;2022-09-17T10:25:19;10.10;;;8.77;;
32228;SDS011;18717;48.034;11.186;2022-09-17T10:27:51;11.98;;;8.75;;
32228;SDS011;18717;48.034;11.186;2022-09-17T10:30:18;9.05;;;8.30;;
32228;SDS011;18717;48.034;11.186;2022-09-17T10:33:09;9.40;;;8.40;;
32228;SDS011;18717;48.034;11.186;2022-09-17T10:35:38;9.38;;;8.25;;
32228;SDS011;18717;48.034;11.186;2022-09-17T10:38:24;9.05;;;8.15;;
32228;SDS011;18717;48.034;11.186;2022-09-17T10:41:02;9.68;;;8.68;;
32228;SDS011;18717;48.034;11.186;2022-09-17T10:43:35;8.75;;;8.15;;
32228;SDS011;18717;48.034;11.186;2022-09-17T10:46:03;14.35;;;8.80;;
32228;SDS011;18717;48.034;11.186;2022-09-17T10:48:35;11.18;;;8.80;;
32228;SDS011;18717;48.034;11.186;2022-09-17T10:51:06;9.30;;;8.52;;
32228;SDS011;18717;48.034;11.186;2022-09-17T10:53:36;9.55;;;8.60;;
32228;SDS011;18717;48.034;11.186;2022-09-17T10:56:25;9.70;;;8.52;;
32228;SDS011;18717;48.034;11.186;2022-09-17T10:58:57;8.60;;;8.05;;
32228;SDS011;18717;48.034;11.186;2022-09-17T11:01:32;9.25;;;8.40;;
32228;SDS011;18717;48.034;11.186;2022-09-17T11:04:15;9.55;;;8.20;;
32228;SDS011;18717;48.034;11.186;2022-09-17T11:09:58;8.20;;;7.72;;
32228;SDS011;18717;48.034;11.186;2022-09-17T11:12:33;8.75;;;8.18;;
32228;SDS011;18717;48.034;11.186;2022-09-17T11:15:10;8.90;;;8.30;;
32228;SDS011;18717;48.034;11.186;2022-09-17T11:17:52;10.05;;;8.35;;
32228;SDS011;18717;48.034;11.186;2022-09-17T11:20:31;9.50;;;8.70;;
32228;SDS011;18717;48.034;11.186;2022-09-17T11:23:14;9.52;;;8.82;;
32228;SDS011;18717;48.034;11.186;2022-09-17T11:25:50;8.40;;;7.68;;
32228;SDS011;18717;48.034;11.186;2022-09-17T11:28:36;8.82;;;8.13;;
32228;SDS011;18717;48.034;11.186;2022-09-17T11:31:12;9.00;;;8.15;;
32228;SDS011;18717;48.034;11.186;2022-09-17T11:33:59;8.43;;;7.97;;
32228;SDS011;18717;48.034;11.186;2022-09-17T11:36:47;8.48;;;7.75;;
32228;SDS011;18717;48.034;11.186;2022-09-17T11:39:19;8.63;;;8.20;;
32228;SDS011;18717;48.034;11.186;2022-09-17T11:41:49;8.83;;;8.33;;
32228;SDS011;18717;48.034;11.186;2022-09-17T11:44:20;9.52;;;8.80;;
32228;SDS011;18717;48.034;11.186;2022-09-17T11:46:50;8.73;;;8.23;;
32228;SDS011;18717;48.034;11.186;2022-09-17T11:49:22;9.20;;;8.52;;
32228;SDS011;18717;48.034;11.186;2022-09-17T11:51:57;10.68;;;9.55;;
32228;SDS011;18717;48.034;11.186;2022-09-17T11:54:46;8.43;;;7.82;;
32228;SDS011;18717;48.034;11.186;2022-09-17T11:57:18;8.63;;;8.13;;
32228;SDS011;18717;48.034;11.186;2022-09-17T11:59:48;9.52;;;8.40;;
32228;SDS011;18717;48.034;11.186;2022-09-17T12:02:20;9.82;;;9.23;;
32228;SDS011;18717;48.034;11.186;2022-09-17T12:04:52;9.23;;;8.63;;
32228;SDS011;18717;48.034;11.186;2022-09-17T12:07:26;8.80;;;8.30;;
32228;SDS011;18717;48.034;11.186;2022-09-17T12:09:58;8.77;;;8.32;;
32228;SDS011;18717;48.034;11.186;2022-09-17T12:12:28;8.82;;;8.15;;
32228;SDS011;18717;48.034;11.186;2022-09-17T12:15:16;8.55;;;8.13;;
32228;SDS011;18717;48.034;11.186;2022-09-17T12:17:46;8.30;;;7.90;;
32228;SDS011;18717;48.034;11.186;2022-09-17T12:20:39;8.85;;;8.35;;
32228;SDS011;18717;48.034;11.186;2022-09-17T12:23:10;9.05;;;8.45;;
32228;SDS011;18717;48.034;11.186;2022-09-17T12:25:42;8.95;;;8.35;;
32228;SDS011;18717;48.034;11.186;2022-09-17T12:28:15;8.07;;;7.68;;
32228;SDS011;18717;48.034;11.186;2022-09-17T12:30:48;9.32;;;8.73;;
32228;SDS011;18717;48.034;11.186;2022-09-17T12:33:21;8.95;;;8.32;;
32228;SDS011;18717;48.034;11.186;2022-09-17T12:35:59;9.32;;;8.73;;
32228;SDS011;18717;48.034;11.186;2022-09-17T12:41:31;9.38;;;8.77;;
32228;SDS011;18717;48.034;11.186;2022-09-17T12:44:09;10.30;;;9.40;;
32228;SDS011;18717;48.034;11.186;2022-09-17T12:46:49;8.90;;;8.25;;
32228;SDS011;18717;48.034;11.186;2022-09-17T12:49:34;8.73;;;8.32;;
32228;SDS011;18717;48.034;11.186;2022-09-17T12:52:11;9.73;;;8.95;;
32228;SDS011;18717;48.034;11.186;2022-09-17T12:54:52;9.20;;;8.60;;
32228;SDS011;18717;48.034;11.186;2022-09-17T12:57:29;9.27;;;8.75;;
32228;SDS011;18717;48.034;11.186;2022-09-17T13:00:03;10.27;;;9.57;;
32228;SDS011;18717;48.034;11.186;2022-09-17T13:02:35;9.30;;;8.48;;
32228;SDS011;18717;48.034;11.186;2022-09-17T13:05:10;9.07;;;8.57;;
32228;SDS011;18717;48.034;11.186;2022-09-17T13:10:40;8.85;;;8.20;;
32228;SDS011;18717;48.034;11.186;2022-09-17T13:13:29;9.45;;;8.63;;
32228;SDS011;18717;48.034;11.186;2022-09-17T13:16:02;9.95;;;9.10;;
32228;SDS011;18717;48.034;11.186;2022-09-17T13:18:42;9.23;;;8.52;;
32228;SDS011;18717;48.034;11.186;2022-09-17T13:21:36;9.10;;;8.60;;
32228;SDS011;18717;48.034;11.186;2022-09-17T13:24:15;9.20;;;8.60;;
32228;SDS011;18717;48.034;11.186;2022-09-17T13:26:45;8.82;;;8.20;;
32228;SDS011;18717;48.034;11.186;2022-09-17T13:29:22;9.50;;;8.77;;
32228;SDS011;18717;48.034;11.186;2022-09-17T13:38:14;9.70;;;8.73;;
32228;SDS011;18717;48.034;11.186;2022-09-17T13:40:48;8.18;;;7.78;;
32228;SDS011;18717;48.034;11.186;2022-09-17T13:43:18;9.40;;;8.65;;
32228;SDS011;18717;48.034;11.186;2022-09-17T13:46:05;8.38;;;7.95;;
32228;SDS011;18717;48.034;11.186;2022-09-17T13:48:47;8.65;;;8.25;;
32228;SDS011;18717;48.034;11.186;2022-09-17T13:54:10;8.75;;;8.07;;
32228;SDS011;18717;48.034;11.186;2022-09-17T13:56:40;8.45;;;8.02;;
32228;SDS011;18717;48.034;11.186;2022-09-17T14:01:57;9.68;;;8.90;;
32228;SDS011;18717;48.034;11.186;2022-09-17T14:04:33;12.30;;;10.85;;
32228;SDS011;18717;48.034;11.186;2022-09-17T14:07:16;15.93;;;11.27;;
32228;SDS011;18717;48.034;11.186;2022-09-17T14:09:58;9.05;;;8.10;;
32228;SDS011;18717;48.034;11.186;2022-09-17T14:15:34;8.65;;;8.05;;
32228;SDS011;18717;48.034;11.186;2022-09-17T14:21:03;8.32;;;7.80;;
32228;SDS011;18717;48.034;11.186;2022-09-17T14:26:01;8.85;;;8.27;;
32228;SDS011;18717;48.034;11.186;2022-09-17T14:28:30;8.55;;;8.05;;
32228;SDS011;18717;48.034;11.186;2022-09-17T14:31:06;8.52;;;7.93;;
32228;SDS011;18717;48.034;11.186;2022-09-17T14:33:36;9.73;;;8.50;;
32228;SDS011;18717;48.034;11.186;2022-09-17T14:36:07;8.70;;;8.10;;
32228;SDS011;18717;48.034;11.186;2022-09-17T14:38:36;10.18;;;8.27;;
32228;SDS011;18717;48.034;11.186;2022-09-17T14:41:15;8.48;;;7.88;;
32228;SDS011;18717;48.034;11.186;2022-09-17T14:43:47;8.43;;;7.93;;
32228;SDS011;18717;48.034;11.186;2022-09-17T14:46:19;8.93;;;8.35;;
32228;SDS011;18717;48.034;11.186;2022-09-17T14:48:49;10.25;;;8.82;;
32228;SDS011;18717;48.034;11.186;2022-09-17T14:51:24;9.07;;;8.25;;
32228;SDS011;18717;48.034;11.186;2022-09-17T14:54:15;8.50;;;8.10;;
32228;SDS011;18717;48.034;11.186;2022-09-17T14:56:53;8.00;;;7.57;;
32228;SDS011;18717;48.034;11.186;2022-09-17T14:59:32;8.25;;;7.75;;
32228;SDS011;18717;48.034;11.186;2022-09-17T15:02:21;7.53;;;7.22;;
32228;SDS011;18717;48.034;11.186;2022-09-17T15:04:53;7.78;;;7.47;;
32228;SDS011;18717;48.034;11.186;2022-09-17T15:07:21;8.07;;;7.68;;
32228;SDS011;18717;48.034;11.186;2022-09-17T15:09:50;7.78;;;7.43;;
32228;SDS011;18717;48.034;11.186;2022-09-17T15:12:21;7.88;;;7.47;;
32228;SDS011;18717;48.034;11.186;2022-09-17T15:14:51;8.57;;;8.27;;
32228;SDS011;18717;48.034;11.186;2022-09-17T15:17:22;8.23;;;7.82;;
32228;SDS011;18717;48.034;11.186;2022-09-17T15:19:50;7.75;;;7.35;;
32228;SDS011;18717;48.034;11.186;2022-09-17T15:22:20;8.18;;;7.45;;
32228;SDS011;18717;48.034;11.186;2022-09-17T15:24:51;9.15;;;7.57;;
32228;SDS011;18717;48.034;11.186;2022-09-17T15:27:22;8.05;;;7.40;;
32228;SDS011;18717;48.034;11.186;2022-09-17T15:29:52;8.10;;;7.63;;
32228;SDS011;18717;48.034;11.186;2022-09-17T15:32:23;7.88;;;7.22;;
32228;SDS011;18717;48.034;11.186;2022-09-17T15:37:52;8.32;;;7.72;;
32228;SDS011;18717;48.034;11.186;2022-09-17T15:40:41;8.07;;;7.68;;
32228;SDS011;18717;48.034;11.186;2022-09-17T15:43:13;8.48;;;8.02;;